Time;durP1;ratioP1;P1;durP2;ratioP2;P2;SDS_P1;SDS_P2;PMS_P1;PMS_P2;Temp;Humidity;BMP_temperature;BMP_pressure;BME280_temperature;BME280_humidity;BME280_pressure;Samples;Min_cycle;Max_cycle;Signal;HPM_P1;HPM_P2
2023/04/10 00:00:10;;;;;;;14.00;11.02;;;;;;;6.91;81.66;98727.16;4168026;28;20212;-82
2023/04/10 00:02:13;;;;;;;13.23;11.18;;;;;;;6.90;81.59;98725.47;4179804;28;20214;-82
2023/04/10 00:04:17;;;;;;;15.35;11.68;;;;;;;6.88;81.52;98722.13;4161145;28;20723;-82
2023/04/10 00:06:20;;;;;;;15.18;11.88;;;;;;;6.87;81.08;98721.28;4185515;28;20212;-82
2023/04/10 00:08:24;;;;;;;17.65;11.40;;;;;;;6.81;81.60;98723.28;4176955;28;20205;-82
2023/04/10 00:10:29;;;;;;;14.05;11.65;;;;;;;6.77;82.02;98726.94;4173001;28;20217;-82
2023/04/10 00:12:32;;;;;;;13.63;10.15;;;;;;;6.73;81.81;98728.78;4178197;28;20342;-82
2023/04/10 00:14:36;;;;;;;15.88;11.98;;;;;;;6.69;82.04;98734.16;4178992;28;20293;-82
2023/04/10 00:16:40;;;;;;;13.82;11.27;;;;;;;6.67;82.19;98730.81;4177657;28;20263;-82
2023/04/10 00:18:43;;;;;;;13.95;11.50;;;;;;;6.66;81.87;98727.38;4179526;28;20726;-82
2023/04/10 00:20:48;;;;;;;16.25;11.23;;;;;;;6.63;82.09;98717.16;4176983;28;20247;-82
2023/04/10 00:22:51;;;;;;;14.82;11.40;;;;;;;6.62;82.42;98707.69;4182467;28;20215;-82
2023/04/10 00:24:54;;;;;;;14.60;10.90;;;;;;;6.63;82.23;98711.97;4183962;28;20217;-82
2023/04/10 00:26:57;;;;;;;16.05;11.23;;;;;;;6.62;82.37;98712.88;4177563;28;20207;-82
2023/04/10 00:29:01;;;;;;;14.32;11.40;;;;;;;6.60;82.30;98706.09;4176244;28;20205;-82
2023/04/10 00:31:05;;;;;;;16.35;11.63;;;;;;;6.60;82.12;98700.91;4167698;28;20209;-82
2023/04/10 00:33:09;;;;;;;16.05;11.50;;;;;;;6.58;82.26;98702.69;4180366;28;20217;-82
2023/04/10 00:35:12;;;;;;;14.50;10.93;;;;;;;6.54;82.46;98697.72;4176316;28;20231;-82
2023/04/10 00:37:16;;;;;;;15.77;12.15;;;;;;;6.53;81.92;98696.88;4156582;28;20213;-82
2023/04/10 00:39:19;;;;;;;16.10;11.82;;;;;;;6.52;82.61;98697.78;4175228;28;20205;-82
2023/04/10 00:41:22;;;;;;;13.02;10.52;;;;;;;6.49;82.61;98689.31;4179033;28;20213;-82
2023/04/10 00:43:26;;;;;;;12.77;10.38;;;;;;;6.48;82.48;98696.25;4175037;28;20205;-82
2023/04/10 00:45:29;;;;;;;13.77;10.70;;;;;;;6.47;82.61;98688.53;4182310;28;20222;-82
2023/04/10 00:47:32;;;;;;;15.27;11.45;;;;;;;6.46;82.63;98695.44;4175056;28;20205;-82
2023/04/10 00:49:37;;;;;;;13.70;10.48;;;;;;;6.44;83.00;98693.84;4182782;28;20220;-82
2023/04/10 00:51:40;;;;;;;12.93;10.77;;;;;;;6.45;82.91;98696.38;4174194;28;20238;-82
2023/04/10 00:53:44;;;;;;;14.13;11.70;;;;;;;6.45;82.86;98696.38;4180975;28;20252;-82
2023/04/10 00:55:49;;;;;;;15.45;11.20;;;;;;;6.39;82.76;98691.44;4161023;28;20256;-82
2023/04/10 00:57:52;;;;;;;13.98;10.98;;;;;;;6.37;82.94;98695.00;4176669;28;20490;-82
2023/04/10 00:59:55;;;;;;;14.05;10.80;;;;;;;6.34;83.34;98688.19;4160139;28;20259;-82
2023/04/10 01:01:59;;;;;;;13.68;10.93;;;;;;;6.33;83.01;98691.72;4164688;28;20221;-81
2023/04/10 01:04:02;;;;;;;14.48;11.35;;;;;;;6.32;83.09;98692.59;4168502;28;20225;-82
2023/04/10 01:06:13;;;;;;;15.55;11.32;;;;;;;6.31;82.81;98693.50;4179697;28;22604;-82
2023/04/10 01:08:23;;;;;;;15.00;11.38;;;;;;;6.25;82.91;98685.97;4156837;28;20203;-82
2023/04/10 01:10:29;;;;;;;13.30;10.60;;;;;;;6.23;82.62;98684.38;4180761;28;20354;-82
2023/04/10 01:12:47;;;;;;;14.60;11.02;;;;;;;6.16;82.75;98688.13;4158467;28;20626;-82
2023/04/10 01:14:54;;;;;;;13.55;10.38;;;;;;;6.14;83.09;98688.19;4180593;28;20208;-82
2023/04/10 01:17:01;;;;;;;14.60;11.10;;;;;;;6.13;83.12;98690.84;4176644;28;20206;-82
2023/04/10 01:19:09;;;;;;;14.48;11.10;;;;;;;6.08;83.07;98686.78;4174241;28;20228;-82
2023/04/10 01:21:15;;;;;;;14.18;10.93;;;;;;;6.05;83.05;98698.09;4180751;28;20291;-82
2023/04/10 01:23:46;;;;;;;16.20;11.10;;;;;;;6.03;82.91;98691.28;4179177;28;20262;-82
2023/04/10 01:25:52;;;;;;;13.57;10.63;;;;;;;6.03;83.13;98693.88;4158274;28;20226;-82
2023/04/10 01:28:05;;;;;;;18.10;10.48;;;;;;;6.01;83.22;98695.69;4171147;28;20962;-82
2023/04/10 01:30:12;;;;;;;15.88;11.13;;;;;;;5.97;83.27;98694.97;4174339;28;20251;-82
2023/04/10 01:32:17;;;;;;;14.70;10.90;;;;;;;5.94;82.96;98689.06;4174281;28;20219;-82
2023/04/10 01:34:22;;;;;;;13.25;10.20;;;;;;;5.89;83.53;98699.59;4159789;28;20198;-82
2023/04/10 01:36:28;;;;;;;12.73;9.82;;;;;;;5.89;83.17;98696.19;4177637;28;20689;-82
2023/04/10 01:38:31;;;;;;;16.05;11.55;;;;;;;5.88;83.57;98703.09;4182863;28;20293;-82
2023/04/10 01:40:38;;;;;;;13.43;10.43;;;;;;;5.87;83.48;98698.81;4156789;28;20210;-82
2023/04/10 01:42:46;;;;;;;14.30;10.55;;;;;;;5.84;83.36;98708.47;4179803;28;20489;-82
2023/04/10 01:44:50;;;;;;;15.18;11.80;;;;;;;5.83;83.95;98711.94;4175553;28;20294;-82
2023/04/10 01:46:55;;;;;;;13.35;10.82;;;;;;;5.83;83.35;98710.22;4184995;28;20211;-82
2023/04/10 01:49:00;;;;;;;15.40;10.90;;;;;;;5.84;83.82;98705.88;4201787;28;20199;-82
2023/04/10 01:51:05;;;;;;;14.52;10.98;;;;;;;5.83;83.90;98711.94;4181253;28;20216;-82
2023/04/10 01:53:08;;;;;;;14.30;11.02;;;;;;;5.80;83.85;98705.16;4176671;28;20244;-81
2023/04/10 01:55:12;;;;;;;14.20;11.13;;;;;;;5.79;83.41;98702.66;4158731;28;20258;-82
2023/04/10 01:57:20;;;;;;;15.55;10.82;;;;;;;5.76;83.90;98705.34;4154560;28;20402;-82
2023/04/10 01:59:32;;;;;;;15.40;10.80;;;;;;;5.77;83.52;98709.59;4172664;28;24473;-82
2023/04/10 02:01:35;;;;;;;12.57;10.38;;;;;;;5.75;83.58;98704.47;4172814;28;20211;-82
2023/04/10 02:03:40;;;;;;;13.18;11.00;;;;;;;5.77;84.04;98699.25;4173192;28;21035;-82
2023/04/10 02:05:57;;;;;;;13.73;11.00;;;;;;;5.76;84.02;98702.75;4149292;28;24595;-82
2023/04/10 02:08:08;;;;;;;15.43;11.20;;;;;;;5.77;83.60;98697.53;4165060;28;20221;-82
2023/04/10 02:10:15;;;;;;;12.75;10.40;;;;;;;5.76;84.01;98695.00;4146818;28;20757;-82
2023/04/10 02:12:22;;;;;;;12.85;10.45;;;;;;;5.73;84.16;98692.50;4177898;28;20675;-82
2023/04/10 02:14:29;;;;;;;14.40;10.38;;;;;;;5.69;83.83;98675.41;4173233;28;20868;-82
2023/04/10 02:16:33;;;;;;;13.23;10.73;;;;;;;5.67;83.73;98679.81;4172725;28;20616;-82
2023/04/10 02:18:36;;;;;;;14.55;10.20;;;;;;;5.68;83.39;98687.50;4158934;28;20227;-82
2023/04/10 02:20:41;;;;;;;13.45;10.77;;;;;;;5.67;84.34;98688.41;4168685;28;20681;-82
2023/04/10 02:22:48;;;;;;;14.95;11.13;;;;;;;5.68;83.58;98690.09;4183508;28;20218;-82
2023/04/10 02:24:51;;;;;;;13.93;10.30;;;;;;;5.66;84.59;98680.69;4181215;28;20204;-82
2023/04/10 02:26:54;;;;;;;13.82;11.10;;;;;;;5.67;84.32;98684.97;4168974;28;20252;-82
2023/04/10 02:28:58;;;;;;;15.05;11.63;;;;;;;5.65;84.96;98689.34;4165961;28;20211;-82
2023/04/10 02:31:03;;;;;;;14.85;11.10;;;;;;;5.62;85.06;98679.13;4181173;28;20206;-82
2023/04/10 02:33:06;;;;;;;14.75;10.88;;;;;;;5.61;84.13;98677.47;4184552;28;20269;-82
2023/04/10 02:35:09;;;;;;;13.27;10.23;;;;;;;5.62;84.16;98684.31;4186735;28;20831;-82
2023/04/10 02:37:14;;;;;;;15.70;12.05;;;;;;;5.60;84.29;98678.34;4174159;28;20677;-82
2023/04/10 02:39:17;;;;;;;17.17;10.85;;;;;;;5.55;83.74;98682.88;4164342;28;20782;-82
2023/04/10 02:41:23;;;;;;;14.43;11.40;;;;;;;5.53;83.66;98674.31;4188568;28;20610;-82
2023/04/10 02:43:28;;;;;;;14.85;10.60;;;;;;;5.53;83.69;98682.06;4188423;28;20298;-82
2023/04/10 02:45:32;;;;;;;14.43;11.13;;;;;;;5.52;84.49;98687.31;4185753;28;20784;-82
2023/04/10 02:47:36;;;;;;;14.10;11.30;;;;;;;5.48;84.43;98681.41;4171539;28;20226;-82
2023/04/10 02:49:39;;;;;;;15.60;11.10;;;;;;;5.45;84.11;98686.72;4168197;28;20215;-82
2023/04/10 02:51:47;;;;;;;15.15;11.25;;;;;;;5.45;84.75;98681.53;4172588;28;20205;-82
2023/04/10 02:53:52;;;;;;;14.23;10.65;;;;;;;5.43;85.02;98679.94;4179912;28;20198;-82
2023/04/10 02:56:06;;;;;;;14.40;11.00;;;;;;;5.43;84.91;98682.50;4184307;28;20215;-82
2023/04/10 02:58:10;;;;;;;14.48;10.80;;;;;;;5.39;85.01;98691.28;4183098;28;20294;-82
2023/04/10 03:00:18;;;;;;;15.23;11.00;;;;;;;5.37;84.48;98691.34;4180911;28;20482;-82
2023/04/10 03:02:56;;;;;;;16.27;11.25;;;;;;;5.34;84.49;98683.69;4190169;28;20197;-82
2023/04/10 03:05:05;;;;;;;16.20;10.80;;;;;;;5.33;84.53;98696.69;4172956;28;20245;-82
2023/04/10 03:07:08;;;;;;;14.55;10.82;;;;;;;5.26;84.41;98685.75;4185969;28;20218;-82
2023/04/10 03:09:14;;;;;;;15.02;10.70;;;;;;;5.19;84.30;98684.28;4183745;28;20256;-82
2023/04/10 03:11:17;;;;;;;13.75;10.57;;;;;;;5.18;84.85;98681.75;4180803;28;20287;-82
2023/04/10 03:13:22;;;;;;;14.15;9.98;;;;;;;5.13;85.49;98684.50;4182431;28;20211;-82
2023/04/10 03:15:25;;;;;;;13.82;11.02;;;;;;;5.13;84.82;98690.56;4170979;28;20211;-81
2023/04/10 03:17:28;;;;;;;12.73;9.85;;;;;;;5.10;84.37;98682.94;4184090;28;20584;-82
2023/04/10 03:19:31;;;;;;;16.77;10.25;;;;;;;5.08;84.85;98682.97;4170405;28;20275;-82
2023/04/10 03:21:34;;;;;;;13.25;10.13;;;;;;;5.07;85.16;98681.31;4183363;28;20243;-81
2023/04/10 03:23:39;;;;;;;14.32;11.13;;;;;;;5.06;86.24;98684.78;4183865;28;20225;-81
2023/04/10 03:25:43;;;;;;;14.68;10.73;;;;;;;5.05;85.95;98685.72;4183813;28;20230;-81
2023/04/10 03:27:47;;;;;;;13.50;10.18;;;;;;;5.04;85.40;98683.19;4181046;28;20237;-81
2023/04/10 03:29:50;;;;;;;15.18;11.02;;;;;;;5.04;84.96;98683.19;4183903;28;20198;-82
2023/04/10 03:31:53;;;;;;;16.05;10.60;;;;;;;5.04;86.19;98685.78;4181181;28;20206;-82
2023/04/10 03:33:56;;;;;;;16.02;11.70;;;;;;;5.03;85.18;98677.16;4163856;28;20216;-82
2023/04/10 03:36:00;;;;;;;14.18;10.77;;;;;;;5.05;84.68;98674.50;4184421;28;20507;-81
2023/04/10 03:38:03;;;;;;;14.18;10.20;;;;;;;5.07;86.15;98670.16;4186971;28;20249;-82
2023/04/10 03:40:08;;;;;;;14.00;10.57;;;;;;;5.11;85.98;98669.13;4185235;28;20344;-82
2023/04/10 03:42:12;;;;;;;13.82;10.52;;;;;;;5.13;85.66;98669.88;4187330;28;20217;-81
2023/04/10 03:44:16;;;;;;;15.40;9.93;;;;;;;5.12;85.38;98665.63;4187973;28;20229;-81
2023/04/10 03:46:19;;;;;;;13.05;10.35;;;;;;;5.13;86.31;98664.72;4183141;28;20225;-82
2023/04/10 03:48:22;;;;;;;14.07;10.60;;;;;;;5.16;85.36;98660.31;4187657;28;20209;-82
2023/04/10 03:50:25;;;;;;;13.98;10.65;;;;;;;5.16;85.63;98655.13;4175717;28;20237;-82
2023/04/10 03:52:33;;;;;;;17.48;11.73;;;;;;;5.14;85.52;98662.94;4199392;28;20207;-82
2023/04/10 03:54:36;;;;;;;13.68;10.32;;;;;;;5.13;85.73;98659.56;4169946;28;20631;-82
2023/04/10 03:56:39;;;;;;;13.65;10.63;;;;;;;5.11;84.96;98656.19;4172187;28;20934;-82
2023/04/10 03:58:44;;;;;;;17.85;11.20;;;;;;;5.11;85.75;98658.78;4203848;28;20275;-82
2023/04/10 04:00:48;;;;;;;16.33;11.27;;;;;;;5.13;85.36;98661.25;4191918;28;20230;-82
2023/04/10 04:03:04;;;;;;;13.43;10.23;;;;;;;5.17;84.94;98660.25;4174759;28;20206;-82
2023/04/10 04:05:25;;;;;;;16.00;10.32;;;;;;;5.16;86.17;98655.97;4174786;28;20229;-81
2023/04/10 04:07:57;;;;;;;13.98;10.25;;;;;;;5.16;84.89;98658.53;4170672;28;20688;-81
2023/04/10 04:10:21;;;;;;;14.15;10.88;;;;;;;5.14;84.99;98654.31;4182212;28;20273;-81
2023/04/10 04:12:36;;;;;;;15.32;9.88;;;;;;;5.12;85.01;98655.31;4180191;28;20203;-81
2023/04/10 04:15:00;;;;;;;13.05;9.95;;;;;;;5.12;84.79;98657.88;4185121;28;20235;-82
2023/04/10 04:17:18;;;;;;;16.17;11.20;;;;;;;5.11;86.14;98658.78;4173588;28;20202;-81
2023/04/10 04:19:50;;;;;;;16.42;11.63;;;;;;;5.10;85.40;98659.66;4185003;28;20697;-81
2023/04/10 04:22:13;;;;;;;14.68;10.65;;;;;;;5.08;84.70;98658.88;4188275;28;20206;-82
2023/04/10 04:24:34;;;;;;;14.57;11.48;;;;;;;5.08;85.54;98664.06;4181877;28;20484;-81
2023/04/10 04:26:50;;;;;;;14.50;10.93;;;;;;;5.07;85.92;98664.97;4184139;28;20230;-81
2023/04/10 04:29:11;;;;;;;13.45;10.65;;;;;;;5.08;86.25;98657.13;4185371;28;20297;-81
2023/04/10 04:31:31;;;;;;;14.95;11.07;;;;;;;5.07;85.90;98662.41;4189843;28;20206;-81
2023/04/10 04:33:37;;;;;;;14.15;10.95;;;;;;;5.09;85.52;98666.59;4186056;28;20213;-81
2023/04/10 04:35:59;;;;;;;13.85;10.40;;;;;;;5.08;86.19;98669.22;4190110;28;20833;-81
2023/04/10 04:38:15;;;;;;;13.23;10.10;;;;;;;5.07;86.20;98665.81;4183020;28;20216;-81
2023/04/10 04:40:34;;;;;;;13.68;10.70;;;;;;;5.07;86.11;98662.41;4164444;28;20748;-82
2023/04/10 04:43:06;;;;;;;14.05;10.10;;;;;;;5.07;86.07;98664.97;4180884;28;20756;-81
2023/04/10 04:45:41;;;;;;;14.77;10.50;;;;;;;5.04;85.97;98659.94;4188911;28;20745;-81
2023/04/10 04:47:53;;;;;;;13.68;9.90;;;;;;;5.02;84.95;98659.13;4190689;28;20586;-81
2023/04/10 04:50:17;;;;;;;13.82;10.75;;;;;;;5.02;86.36;98657.41;4186257;28;20249;-81
2023/04/10 04:52:38;;;;;;;13.20;10.57;;;;;;;5.01;84.67;98662.63;4183737;28;20214;-81
2023/04/10 04:55:00;;;;;;;13.65;10.63;;;;;;;5.03;85.00;98665.97;4189624;28;20666;-81
2023/04/10 04:57:22;;;;;;;14.20;9.95;;;;;;;5.00;85.69;98658.34;4190018;28;20757;-82
2023/04/10 04:59:43;;;;;;;17.80;11.90;;;;;;;4.98;85.43;98662.75;4181157;28;20198;-82
2023/04/10 05:01:55;;;;;;;16.83;10.75;;;;;;;4.99;86.09;98659.22;4164707;28;20354;-81
2023/04/10 05:04:20;;;;;;;14.98;11.55;;;;;;;5.03;86.44;98660.81;4182328;28;20594;-81
2023/04/10 05:06:52;;;;;;;12.15;9.90;;;;;;;5.16;85.84;98660.31;4177728;28;20206;-81
2023/04/10 05:09:29;;;;;;;14.30;10.30;;;;;;;5.32;86.03;98664.81;4188269;28;20301;-81
2023/04/10 05:11:40;;;;;;;20.20;13.98;;;;;;;5.50;84.94;98669.25;4178728;28;20202;-81
2023/04/10 05:14:15;;;;;;;16.48;12.27;;;;;;;5.71;85.13;98669.28;4191049;28;20683;-81
2023/04/10 05:16:42;;;;;;;18.15;12.70;;;;;;;5.90;84.74;98674.59;4186252;28;20590;-81
2023/04/10 05:19:05;;;;;;;14.40;11.27;;;;;;;6.09;83.88;98669.41;4186281;28;20583;-81
2023/04/10 05:21:32;;;;;;;14.02;11.18;;;;;;;6.31;83.18;98677.13;4190566;28;20233;-82
2023/04/10 05:23:57;;;;;;;14.88;10.85;;;;;;;6.39;82.74;98672.47;4185712;28;20230;-82
2023/04/10 05:26:11;;;;;;;12.60;9.90;;;;;;;6.45;82.51;98674.78;4184861;28;20220;-82
2023/04/10 05:28:40;;;;;;;13.77;10.30;;;;;;;6.56;81.95;98678.63;4176333;28;20673;-81
2023/04/10 05:31:02;;;;;;;14.18;11.10;;;;;;;6.67;81.65;98685.00;4181559;28;20695;-81
2023/04/10 05:33:08;;;;;;;13.38;10.70;;;;;;;6.75;81.05;98680.34;4185906;28;20367;-81
2023/04/10 05:35:34;;;;;;;13.82;10.13;;;;;;;6.81;81.14;98681.81;4184237;28;20301;-81
2023/04/10 05:38:07;;;;;;;14.60;11.68;;;;;;;6.91;81.42;98683.09;4191371;28;20216;-81
2023/04/10 05:40:17;;;;;;;13.88;10.68;;;;;;;6.99;80.83;98670.63;4171118;28;20261;-81
2023/04/10 05:42:46;;;;;;;14.43;11.13;;;;;;;7.06;81.35;98678.06;4179036;28;20297;-82
2023/04/10 05:45:13;;;;;;;13.40;10.23;;;;;;;7.12;79.66;98680.38;4189957;28;20208;-82
2023/04/10 05:47:42;;;;;;;14.23;10.90;;;;;;;7.23;80.01;98680.72;4184681;28;20266;-82
2023/04/10 05:50:06;;;;;;;13.77;10.15;;;;;;;7.32;80.51;98685.50;4186633;28;20223;-81
2023/04/10 05:52:25;;;;;;;13.50;10.52;;;;;;;7.37;80.70;98681.78;4181136;28;20212;-82
2023/04/10 05:54:35;;;;;;;14.13;10.90;;;;;;;7.46;81.21;98683.09;4187386;28;20218;-81
2023/04/10 05:56:57;;;;;;;16.33;11.38;;;;;;;7.59;80.35;98687.63;4184634;28;20271;-82
2023/04/10 05:59:24;;;;;;;16.60;12.10;;;;;;;7.70;80.08;98686.22;4172068;28;20215;-82
2023/04/10 06:01:39;;;;;;;12.85;10.98;;;;;;;7.92;81.14;98683.44;4168736;28;20226;-82
2023/04/10 06:03:42;;;;;;;13.48;10.90;;;;;;;8.09;80.23;98685.16;4191489;28;20474;-82
2023/04/10 06:05:46;;;;;;;15.13;11.23;;;;;;;8.27;78.39;98691.22;4177771;28;20244;-82
2023/04/10 06:07:49;;;;;;;15.80;12.18;;;;;;;8.50;79.68;98690.00;4184601;28;20373;-82
2023/04/10 06:09:53;;;;;;;13.75;10.95;;;;;;;8.73;78.51;98694.03;4188138;28;20216;-82
2023/04/10 06:11:57;;;;;;;14.55;10.77;;;;;;;9.02;77.95;98704.59;4187569;28;20201;-81
2023/04/10 06:14:01;;;;;;;14.48;11.20;;;;;;;9.25;77.97;98706.84;4169924;28;20202;-81
2023/04/10 06:16:11;;;;;;;15.85;10.35;;;;;;;9.47;78.31;98711.66;4170492;28;20237;-81
2023/04/10 06:18:14;;;;;;;12.98;10.73;;;;;;;9.59;77.76;98704.91;4185759;28;20240;-81
2023/04/10 06:20:17;;;;;;;14.43;10.88;;;;;;;9.73;77.08;98707.63;4178518;28;20198;-82
2023/04/10 06:22:21;;;;;;;12.68;10.73;;;;;;;9.84;75.40;98705.25;4174787;28;20634;-82
2023/04/10 06:24:25;;;;;;;13.73;10.85;;;;;;;10.01;75.27;98711.22;4167497;28;20224;-81
2023/04/10 06:26:31;;;;;;;11.83;10.00;;;;;;;10.17;75.22;98712.88;4172315;28;20666;-82
2023/04/10 06:28:35;;;;;;;14.05;11.10;;;;;;;10.29;75.50;98701.75;4185342;28;20639;-81
2023/04/10 06:30:39;;;;;;;13.38;10.75;;;;;;;10.44;76.02;98698.28;4169246;28;20309;-82
2023/04/10 06:32:43;;;;;;;14.23;11.20;;;;;;;10.62;74.85;98695.41;4169643;28;20841;-82
2023/04/10 06:34:46;;;;;;;13.67;11.00;;;;;;;10.73;73.55;98702.63;4184547;28;20300;-82
2023/04/10 06:36:50;;;;;;;14.57;11.50;;;;;;;10.89;73.54;98699.84;4183912;28;20635;-82
2023/04/10 06:38:54;;;;;;;13.70;11.20;;;;;;;11.12;75.84;98704.50;4180928;28;21089;-82
2023/04/10 06:40:58;;;;;;;13.45;10.52;;;;;;;11.33;73.61;98701.41;4162931;28;20566;-82
2023/04/10 06:43:03;;;;;;;15.60;12.07;;;;;;;11.42;71.92;98700.84;4177925;28;20684;-81
2023/04/10 06:45:14;;;;;;;12.73;10.52;;;;;;;11.45;72.46;98694.63;4183601;28;20640;-82
2023/04/10 06:47:17;;;;;;;12.67;10.90;;;;;;;11.47;71.26;98692.78;4180103;28;20202;-81
2023/04/10 06:49:20;;;;;;;14.05;11.98;;;;;;;11.50;72.76;98697.81;4182354;28;20675;-82
2023/04/10 06:51:23;;;;;;;13.70;10.90;;;;;;;11.58;73.99;98698.19;4180873;28;20205;-81
2023/04/10 06:53:26;;;;;;;12.30;10.70;;;;;;;11.56;72.07;98690.44;4182630;28;22115;-82
2023/04/10 06:55:30;;;;;;;14.87;10.80;;;;;;;11.61;71.66;98695.38;4184653;28;20632;-82
2023/04/10 06:57:33;;;;;;;13.90;10.33;;;;;;;11.66;72.70;98690.69;4182700;28;20676;-82
2023/04/10 06:59:38;;;;;;;12.93;10.70;;;;;;;11.83;74.71;98700.00;4182727;28;20770;-82
2023/04/10 07:01:41;;;;;;;12.33;10.07;;;;;;;12.04;73.50;98690.78;4182760;28;20652;-81
2023/04/10 07:03:44;;;;;;;14.20;11.37;;;;;;;12.21;70.63;98700.97;4182335;28;20674;-82
2023/04/10 07:05:47;;;;;;;13.93;11.10;;;;;;;12.31;72.11;98696.81;4185110;28;21101;-81
2023/04/10 07:07:50;;;;;;;13.77;11.10;;;;;;;12.48;72.25;98691.28;4180219;28;20989;-82
2023/04/10 07:09:54;;;;;;;13.80;11.67;;;;;;;12.64;71.74;98700.66;4181828;28;21000;-82
2023/04/10 07:11:57;;;;;;;14.00;11.23;;;;;;;12.74;71.74;98694.69;4178207;28;21128;-81
2023/04/10 07:14:00;;;;;;;12.50;10.60;;;;;;;12.82;70.19;98683.72;4181679;28;20956;-81
2023/04/10 07:16:05;;;;;;;11.20;10.00;;;;;;;12.93;70.73;98689.06;4188493;28;20635;-81
2023/04/10 07:18:08;;;;;;;14.30;10.80;;;;;;;13.08;70.90;98688.88;4190590;28;20679;-81
2023/04/10 07:20:12;;;;;;;13.80;11.10;;;;;;;13.26;68.28;98690.22;4189381;28;20649;-81
2023/04/10 07:22:15;;;;;;;13.50;10.70;;;;;;;13.56;70.52;98703.81;4187574;28;21287;-82
2023/04/10 07:24:19;;;;;;;12.50;11.10;;;;;;;13.86;70.47;98708.56;4186614;28;20793;-80
2023/04/10 07:26:22;;;;;;;12.93;10.17;;;;;;;13.83;65.63;98698.28;4187119;28;20228;-81
2023/04/10 07:28:25;;;;;;;11.80;10.30;;;;;;;14.13;66.55;98701.34;4179810;28;21094;-81
2023/04/10 07:30:28;;;;;;;11.23;9.97;;;;;;;14.50;64.21;98700.31;4178607;28;20731;-81
2023/04/10 07:32:33;;;;;;;9.67;8.40;;;;;;;14.88;62.46;98702.56;4185558;28;20636;-80
2023/04/10 07:34:37;;;;;;;8.50;7.10;;;;;;;15.20;59.87;98699.22;4188653;28;20705;-80
2023/04/10 07:36:40;;;;;;;8.60;7.43;;;;;;;15.49;61.91;98710.09;4184502;28;20662;-80
2023/04/10 07:38:43;;;;;;;7.70;6.87;;;;;;;15.66;58.82;98711.25;4173276;28;20635;-80
2023/04/10 07:40:47;;;;;;;7.53;6.60;;;;;;;15.75;60.62;98710.53;4193634;28;20744;-80
2023/04/10 07:42:50;;;;;;;8.83;7.50;;;;;;;15.85;60.34;98708.88;4185034;28;21193;-81
2023/04/10 07:44:55;;;;;;;8.20;6.40;;;;;;;15.82;58.08;98719.63;4181881;28;21220;-81
2023/04/10 07:46:58;;;;;;;7.83;6.67;;;;;;;15.79;56.95;98709.34;4190120;28;21048;-81
2023/04/10 07:49:03;;;;;;;9.40;7.43;;;;;;;15.62;56.56;98704.59;4205544;28;20645;-81
2023/04/10 07:51:10;;;;;;;8.20;7.40;;;;;;;15.51;57.25;98705.56;4187876;28;21087;-81
2023/04/10 07:53:13;;;;;;;8.60;7.30;;;;;;;15.45;57.46;98698.97;4191412;28;20633;-80
2023/04/10 07:55:16;;;;;;;8.80;7.47;;;;;;;15.37;57.78;98696.09;4187782;28;20729;-81
2023/04/10 07:57:20;;;;;;;8.45;7.65;;;;;;;15.59;57.68;98709.22;4189860;28;20747;-81
2023/04/10 07:59:23;;;;;;;7.43;6.73;;;;;;;15.81;56.73;98706.59;4170833;28;20244;-81
2023/04/10 08:01:26;;;;;;;8.10;7.30;;;;;;;15.93;57.14;98698.56;4188338;28;20666;-84
2023/04/10 08:03:29;;;;;;;8.03;7.23;;;;;;;16.25;55.29;98699.47;4191523;28;20668;-85
2023/04/10 08:05:35;;;;;;;7.77;6.57;;;;;;;16.53;55.72;98699.72;4188658;28;21273;-83
2023/04/10 08:07:38;;;;;;;7.30;6.60;;;;;;;16.83;58.44;98694.56;4184563;28;21307;-83
2023/04/10 08:09:41;;;;;;;8.07;7.20;;;;;;;17.00;55.76;98694.78;4184633;28;20689;-82
2023/04/10 08:11:44;;;;;;;7.40;6.33;;;;;;;17.19;56.57;98697.56;4190037;28;21832;-83
2023/04/10 08:13:47;;;;;;;7.33;6.60;;;;;;;17.20;55.58;98691.28;4178472;28;20652;-83
2023/04/10 08:15:51;;;;;;;7.37;6.47;;;;;;;17.36;54.78;98700.44;4194162;28;20635;-83
2023/04/10 08:17:54;;;;;;;6.40;5.80;;;;;;;17.54;53.44;98697.03;4185631;28;20732;-83
2023/04/10 08:19:57;;;;;;;8.07;6.97;;;;;;;17.62;52.92;98696.38;4184448;28;20669;-82
2023/04/10 08:22:01;;;;;;;7.03;6.13;;;;;;;17.73;52.96;98705.03;4190017;28;20644;-81
2023/04/10 08:24:05;;;;;;;6.30;5.70;;;;;;;17.84;53.00;98683.00;4177233;28;20648;-81
2023/04/10 08:26:08;;;;;;;6.97;6.27;;;;;;;17.98;53.57;98699.28;4187109;28;20647;-81
2023/04/10 08:28:11;;;;;;;6.70;6.00;;;;;;;18.14;53.26;98697.00;4183996;28;20734;-81
2023/04/10 08:30:15;;;;;;;8.40;5.63;;;;;;;18.26;51.45;98698.53;4188209;28;22289;-80
2023/04/10 08:32:18;;;;;;;5.87;5.27;;;;;;;18.28;50.24;98689.53;4180807;28;20632;-80
2023/04/10 08:34:23;;;;;;;5.97;5.37;;;;;;;18.31;50.65;98685.75;4187478;28;20620;-81
2023/04/10 08:36:26;;;;;;;6.00;5.40;;;;;;;18.33;50.60;98681.16;4192230;28;20629;-80
2023/04/10 08:38:30;;;;;;;11.43;5.53;;;;;;;18.32;50.48;98696.19;4176350;28;21232;-80
2023/04/10 08:40:37;;;;;;;5.27;4.77;;;;;;;18.23;50.36;98686.44;4169950;28;20646;-80
2023/04/10 08:42:40;;;;;;;5.70;5.10;;;;;;;18.29;50.33;98683.25;4169800;28;21260;-80
2023/04/10 08:44:44;;;;;;;5.80;5.13;;;;;;;18.27;51.00;98673.81;4184623;28;20635;-80
2023/04/10 08:46:48;;;;;;;5.70;4.90;;;;;;;18.36;50.49;98673.81;4180180;28;20678;-81
2023/04/10 08:48:55;;;;;;;5.63;5.10;;;;;;;18.37;51.24;98670.16;4187477;28;20704;-81
2023/04/10 08:51:01;;;;;;;5.70;5.17;;;;;;;18.34;50.85;98672.25;4194096;28;20634;-80
2023/04/10 08:53:08;;;;;;;5.33;4.83;;;;;;;18.41;50.30;98668.94;4189475;28;20627;-80
2023/04/10 08:55:13;;;;;;;5.63;4.73;;;;;;;18.36;49.64;98659.75;4189552;28;21058;-81
2023/04/10 08:57:21;;;;;;;5.40;4.90;;;;;;;18.34;50.13;98653.78;4183823;28;20648;-80
2023/04/10 08:59:24;;;;;;;5.60;4.90;;;;;;;18.39;50.67;98662.09;4190738;28;20740;-81
2023/04/10 09:01:27;;;;;;;5.30;4.80;;;;;;;18.32;50.31;98658.38;4185384;28;20652;-80
2023/04/10 09:03:30;;;;;;;4.70;4.20;;;;;;;18.35;49.09;98666.03;4181704;28;20652;-80
2023/04/10 09:05:35;;;;;;;4.87;4.20;;;;;;;18.46;51.04;98658.78;4188855;28;20710;-82
2023/04/10 09:07:39;;;;;;;5.57;4.70;;;;;;;18.53;49.19;98666.00;4186676;28;20995;-80
2023/04/10 09:09:42;;;;;;;5.03;4.53;;;;;;;18.56;50.40;98657.81;4187836;28;20738;-80
2023/04/10 09:12:02;;;;;;;5.10;4.57;;;;;;;18.55;49.40;98650.88;4188957;28;21040;-80
2023/04/10 09:14:20;;;;;;;4.97;4.40;;;;;;;18.67;49.59;98647.09;4193825;28;20640;-80
2023/04/10 09:16:28;;;;;;;4.93;4.30;;;;;;;18.76;49.98;98656.81;4177413;28;20618;-81
2023/04/10 09:18:42;;;;;;;4.80;4.30;;;;;;;18.77;48.89;98652.38;4191104;28;20671;-80
2023/04/10 09:20:50;;;;;;;5.00;4.27;;;;;;;18.58;47.57;98655.03;4180863;28;20643;-80
2023/04/10 09:22:53;;;;;;;4.80;3.90;;;;;;;18.45;47.87;98654.47;4167042;28;20662;-81
2023/04/10 09:24:58;;;;;;;4.43;4.03;;;;;;;18.33;47.33;98652.94;4175943;28;20681;-81
2023/04/10 09:27:02;;;;;;;3.83;3.43;;;;;;;18.28;48.18;98643.75;4178786;28;20647;-81
2023/04/10 09:29:09;;;;;;;3.90;3.47;;;;;;;18.32;48.29;98642.53;4186423;28;20642;-80
2023/04/10 09:31:31;;;;;;;6.97;5.57;;;;;;;18.45;48.42;98646.56;4182566;28;20665;-80
2023/04/10 09:33:34;;;;;;;4.07;3.60;;;;;;;18.64;49.73;98636.81;4177541;28;21088;-81
2023/04/10 09:35:38;;;;;;;3.70;3.30;;;;;;;18.83;47.79;98642.06;4187933;28;20643;-81
2023/04/10 09:37:44;;;;;;;5.77;3.17;;;;;;;18.87;48.14;98648.75;4186235;28;21176;-83
2023/04/10 09:39:47;;;;;;;3.80;3.40;;;;;;;18.88;47.98;98637.16;4163990;28;21021;-82
2023/04/10 09:41:51;;;;;;;4.73;4.17;;;;;;;18.90;47.98;98645.81;4182218;28;21343;-82
2023/04/10 09:44:07;;;;;;;5.33;4.03;;;;;;;18.95;49.63;98643.56;4187972;28;20678;-82
2023/04/10 09:46:10;;;;;;;5.20;4.70;;;;;;;19.00;49.69;98638.66;4184927;28;20638;-82
2023/04/10 09:48:13;;;;;;;4.80;3.73;;;;;;;19.01;48.41;98632.41;4177790;28;21062;-83
2023/04/10 09:50:17;;;;;;;4.40;4.00;;;;;;;18.97;48.82;98628.38;4184035;28;20639;-82
2023/04/10 09:52:23;;;;;;;4.90;4.40;;;;;;;18.99;49.29;98623.81;4187153;28;20650;-83
2023/04/10 09:54:36;;;;;;;4.87;4.00;;;;;;;18.90;49.12;98614.09;4186325;28;20677;-83
2023/04/10 09:56:39;;;;;;;4.87;4.10;;;;;;;18.89;47.85;98615.03;4185240;28;20636;-84